createdAt,value
2022-11-22T00:00:44.125Z,98880.50
2022-11-22T00:03:11.288Z,98875.38
2022-11-22T00:05:38.345Z,98870.25
2022-11-22T00:08:05.818Z,98877.66
2022-11-22T00:10:34.688Z,98869.63
2022-11-22T00:13:01.561Z,98866.44
2022-11-22T00:15:28.822Z,98864.50
2022-11-22T00:17:55.671Z,98875.38
2022-11-22T00:20:22.452Z,98885.63
2022-11-22T00:22:49.409Z,98884.28
2022-11-22T00:25:16.222Z,98878.94
2022-11-22T00:27:43.534Z,98869.81
2022-11-22T00:30:10.955Z,98882.03
2022-11-22T00:32:37.855Z,98876.44
2022-11-22T00:35:05.291Z,98861.25
2022-11-22T00:37:32.366Z,98861.06
2022-11-22T00:39:59.152Z,98869.38
2022-11-22T00:42:26.053Z,98860.53
2022-11-22T00:44:52.823Z,98852.84
2022-11-22T00:47:19.674Z,98857.81
2022-11-22T00:49:46.404Z,98861.25
2022-11-22T00:52:13.301Z,98854.91
2022-11-22T00:54:40.099Z,98856.84
2022-11-22T00:57:06.827Z,98859.06
2022-11-22T00:59:33.603Z,98846.97
2022-11-22T01:02:00.393Z,98848.16
2022-11-22T01:04:27.188Z,98839.56
2022-11-22T01:06:55.000Z,98841.31
2022-11-22T01:09:23.784Z,98839.38
2022-11-22T01:11:51.143Z,98844.16
2022-11-22T01:14:19.939Z,98844.16
2022-11-22T01:16:48.019Z,98834.59
2022-11-22T01:19:14.987Z,98842.72
2022-11-22T01:21:41.885Z,98836.03
2022-11-22T01:24:09.012Z,98832.03
2022-11-22T01:26:36.363Z,98826.28
2022-11-22T01:29:03.431Z,98827.00
2022-11-22T01:31:30.412Z,98814.13
2022-11-22T01:33:59.049Z,98808.94
2022-11-22T01:36:26.702Z,98819.81
2022-11-22T01:38:53.703Z,98816.56
2022-11-22T01:41:20.502Z,98806.13
2022-11-22T01:43:47.278Z,98797.31
2022-11-22T01:46:29.282Z,98790.69
2022-11-22T01:49:02.448Z,98779.47
2022-11-22T01:51:40.463Z,98792.63
2022-11-22T01:54:15.964Z,98783.31
2022-11-22T01:56:47.760Z,98775.16
2022-11-22T01:59:18.533Z,98778.31
2022-11-22T02:01:45.410Z,98783.88
2022-11-22T02:04:17.265Z,98775.75
2022-11-22T02:07:10.282Z,98767.56
2022-11-22T02:09:39.402Z,98770.03
2022-11-22T02:12:07.368Z,98763.16
2022-11-22T02:14:35.861Z,98762.81
2022-11-22T02:17:02.907Z,98761.31
2022-11-22T02:19:48.506Z,98765.38
2022-11-22T02:22:33.573Z,98763.94
2022-11-22T02:25:15.779Z,98767.47
2022-11-22T02:27:43.183Z,98761.06
2022-11-22T02:30:10.591Z,98762.53
2022-11-22T02:32:37.512Z,98769.25
2022-11-22T02:35:16.107Z,98770.75
2022-11-22T02:37:43.172Z,98774.53
2022-11-22T02:40:14.781Z,98764.28
2022-11-22T02:42:45.766Z,98759.06
2022-11-22T02:45:12.586Z,98758.72
2022-11-22T02:47:39.354Z,98759.16
2022-11-22T02:50:06.897Z,98754.00
2022-11-22T02:52:33.628Z,98755.59
2022-11-22T02:55:00.357Z,98745.59
2022-11-22T02:57:58.101Z,98740.84
2022-11-22T03:00:24.979Z,98734.91
2022-11-22T03:02:51.928Z,98733.00
2022-11-22T03:05:18.837Z,98738.13
2022-11-22T03:07:48.109Z,98737.75
2022-11-22T03:10:16.150Z,98730.44
2022-11-22T03:12:43.191Z,98727.69
2022-11-22T03:15:10.378Z,98724.94
2022-11-22T03:17:37.336Z,98725.31
2022-11-22T03:20:04.915Z,98720.63
2022-11-22T03:22:32.113Z,98714.34
2022-11-22T03:24:58.950Z,98722.63
2022-11-22T03:27:25.758Z,98713.63
2022-11-22T03:29:52.529Z,98702.66
2022-11-22T03:32:19.391Z,98703.53
2022-11-22T03:34:46.195Z,98699.81
2022-11-22T03:37:13.044Z,98695.75
2022-11-22T03:39:39.813Z,98699.09
2022-11-22T03:42:06.701Z,98691.22
2022-11-22T03:44:33.528Z,98703.50
2022-11-22T03:47:00.346Z,98693.09
2022-11-22T03:49:27.355Z,98690.59
2022-11-22T03:51:54.247Z,98684.56
2022-11-22T03:54:23.322Z,98683.84
2022-11-22T03:56:50.123Z,98672.84
2022-11-22T03:59:16.820Z,98680.78
2022-11-22T04:01:43.639Z,98688.72
2022-11-22T04:04:11.607Z,98684.22
2022-11-22T04:06:38.703Z,98673.94
2022-11-22T04:09:06.013Z,98674.56
2022-11-22T04:11:32.864Z,98678.91
2022-11-22T04:14:18.051Z,98670.16
2022-11-22T04:16:44.782Z,98670.41
2022-11-22T04:19:11.580Z,98663.16
2022-11-22T04:21:38.410Z,98659.63
2022-11-22T04:24:26.480Z,98668.28
2022-11-22T04:26:53.679Z,98653.50
2022-11-22T04:29:21.155Z,98644.22
2022-11-22T04:32:08.496Z,98655.69
2022-11-22T04:34:35.921Z,98643.44
2022-11-22T04:37:03.569Z,98650.75
2022-11-22T04:39:30.665Z,98647.78
2022-11-22T04:42:17.141Z,98658.44
2022-11-22T04:44:44.949Z,98644.03
2022-11-22T04:47:37.030Z,98643.16
2022-11-22T04:50:26.757Z,98641.56
2022-11-22T04:52:58.022Z,98662.72
2022-11-22T04:55:25.190Z,98659.53
2022-11-22T04:57:56.090Z,98657.22
2022-11-22T05:00:27.646Z,98652.91
2022-11-22T05:02:54.501Z,98663.78
2022-11-22T05:05:21.311Z,98660.41
2022-11-22T05:07:48.081Z,98662.59
2022-11-22T05:10:15.165Z,98658.66
2022-11-22T05:12:42.742Z,98669.19
2022-11-22T05:15:11.229Z,98672.38
2022-11-22T05:17:38.372Z,98664.06
2022-11-22T05:20:06.488Z,98664.78
2022-11-22T05:22:56.289Z,98663.41
2022-11-22T05:25:25.656Z,98665.56
2022-11-22T05:27:54.582Z,98660.81
2022-11-22T05:30:21.329Z,98668.75
2022-11-22T05:32:48.077Z,98670.69
2022-11-22T05:35:14.928Z,98655.28
2022-11-22T05:37:41.704Z,98666.44
2022-11-22T05:40:09.183Z,98667.97
2022-11-22T05:42:37.454Z,98672.13
2022-11-22T05:45:04.609Z,98669.97
2022-11-22T05:47:35.670Z,98667.41
2022-11-22T05:50:02.924Z,98668.22
2022-11-22T05:52:29.722Z,98672.97
2022-11-22T05:54:56.440Z,98672.63
2022-11-22T05:57:23.389Z,98672.63
2022-11-22T05:59:50.196Z,98671.84
2022-11-22T06:02:17.005Z,98674.56
2022-11-22T06:04:43.825Z,98682.53
2022-11-22T06:07:10.739Z,98674.81
2022-11-22T06:09:37.622Z,98675.81
2022-11-22T06:12:04.746Z,98670.53
2022-11-22T06:14:31.467Z,98660.59
2022-11-22T06:17:02.099Z,98672.16
2022-11-22T06:19:29.056Z,98672.13
2022-11-22T06:21:55.955Z,98663.19
2022-11-22T06:24:22.642Z,98671.50
2022-11-22T06:26:49.378Z,98680.78
2022-11-22T06:29:16.117Z,98680.16
2022-11-22T06:31:42.819Z,98694.31
2022-11-22T06:34:12.375Z,98696.63
2022-11-22T06:36:39.605Z,98688.66
2022-11-22T06:39:06.769Z,98693.97
2022-11-22T06:41:36.691Z,98691.34
2022-11-22T06:44:08.852Z,98683.41
2022-11-22T06:46:38.250Z,98686.22
2022-11-22T06:49:05.972Z,98684.25
2022-11-22T06:51:33.614Z,98701.31
2022-11-22T06:54:00.466Z,98698.66
2022-11-22T06:56:31.565Z,98695.13
2022-11-22T06:59:01.961Z,98707.38
2022-11-22T07:01:31.977Z,98701.22
2022-11-22T07:04:00.566Z,98701.41
2022-11-22T07:06:29.973Z,98705.28
2022-11-22T07:08:57.020Z,98714.75
2022-11-22T07:11:26.658Z,98713.59
2022-11-22T07:13:54.909Z,98709.88
2022-11-22T07:16:22.771Z,98711.47
2022-11-22T07:18:50.167Z,98707.81
2022-11-22T07:21:26.528Z,98708.22
2022-11-22T07:23:56.410Z,98709.84
2022-11-22T07:26:25.339Z,98716.13
2022-11-22T07:28:52.626Z,98711.19
2022-11-22T07:31:20.305Z,98719.75
2022-11-22T07:33:47.616Z,98713.38
2022-11-22T07:36:21.967Z,98715.50
2022-11-22T07:38:49.724Z,98720.09
2022-11-22T07:41:18.008Z,98721.34
2022-11-22T07:43:46.156Z,98728.59
2022-11-22T07:46:26.451Z,98735.16
2022-11-22T07:48:53.751Z,98733.34
2022-11-22T07:51:20.810Z,98731.97
2022-11-22T07:53:47.884Z,98722.19
2022-11-22T07:56:15.456Z,98720.41
2022-11-22T07:58:42.840Z,98729.69
2022-11-22T08:01:13.016Z,98729.09
2022-11-22T08:03:40.981Z,98722.59
2022-11-22T08:06:10.354Z,98725.16
2022-11-22T08:08:37.901Z,98732.78
2022-11-22T08:11:05.912Z,98740.19
2022-11-22T08:13:34.951Z,98758.28
2022-11-22T08:16:07.994Z,98740.94
2022-11-22T08:18:36.530Z,98738.59
2022-11-22T08:21:07.529Z,98742.81
2022-11-22T08:23:35.344Z,98746.75
2022-11-22T08:26:02.631Z,98748.00
2022-11-22T08:28:29.604Z,98751.00
2022-11-22T08:31:05.128Z,98743.91
2022-11-22T08:33:32.157Z,98756.94
2022-11-22T08:36:00.381Z,98754.53
2022-11-22T08:38:27.772Z,98757.91
2022-11-22T08:40:55.021Z,98754.72
2022-11-22T08:43:21.997Z,98751.19
2022-11-22T08:45:54.375Z,98748.44
2022-11-22T08:48:22.576Z,98756.59
2022-11-22T08:50:54.776Z,98756.22
2022-11-22T08:53:22.149Z,98758.59
2022-11-22T08:55:49.471Z,98758.59
2022-11-22T08:58:16.631Z,98766.88
2022-11-22T09:00:44.065Z,98777.19
2022-11-22T09:03:12.178Z,98780.03
2022-11-22T09:08:27.208Z,98775.28
2022-11-22T09:10:56.284Z,98757.09
2022-11-22T09:13:23.283Z,98774.41
2022-11-22T09:15:50.211Z,98774.22
2022-11-22T09:18:17.147Z,98773.91
2022-11-22T09:20:44.139Z,98777.94
2022-11-22T09:23:11.125Z,98775.78
2022-11-22T09:25:38.158Z,98777.94
2022-11-22T09:28:05.123Z,98770.84
2022-11-22T09:30:32.256Z,98766.09
2022-11-22T09:32:59.291Z,98760.38
2022-11-22T09:35:26.305Z,98763.63
2022-11-22T09:37:53.244Z,98775.03
2022-11-22T09:40:20.363Z,98768.31
2022-11-22T09:42:59.429Z,98766.13
2022-11-22T09:45:32.168Z,98766.94
2022-11-22T09:48:19.783Z,98755.50
2022-11-22T09:50:57.225Z,98760.06
2022-11-22T09:53:37.031Z,98767.81
2022-11-22T09:56:10.968Z,98762.84
2022-11-22T09:58:41.155Z,98759.31
2022-11-22T10:01:24.269Z,98761.06
2022-11-22T10:04:13.163Z,98763.06
2022-11-22T10:06:46.391Z,98761.53
2022-11-22T10:09:47.187Z,98756.78
2022-11-22T10:12:22.547Z,98750.47
2022-11-22T10:15:07.252Z,98750.44
2022-11-22T10:17:46.572Z,98746.09
2022-11-22T10:20:22.608Z,98750.03
2022-11-22T10:22:50.095Z,98749.44
2022-11-22T10:25:21.084Z,98748.47
2022-11-22T10:28:00.807Z,98749.22
2022-11-22T10:30:35.913Z,98744.03
2022-11-22T10:33:38.864Z,98751.16
2022-11-22T10:36:28.914Z,98753.19
2022-11-22T10:39:34.867Z,98756.53
2022-11-22T10:42:20.678Z,98754.59
2022-11-22T10:45:09.174Z,98756.78
2022-11-22T10:47:54.895Z,98745.66
2022-11-22T10:50:33.652Z,98744.03
2022-11-22T10:53:19.309Z,98734.53
2022-11-22T10:56:12.477Z,98738.19
2022-11-22T10:59:16.949Z,98740.97
2022-11-22T11:02:02.337Z,98740.75
2022-11-22T11:04:33.636Z,98730.84
2022-11-22T11:07:12.481Z,98723.91
2022-11-22T11:12:55.139Z,98707.69
2022-11-22T11:15:33.623Z,98702.38
2022-11-22T11:18:08.635Z,98706.53
2022-11-22T11:20:41.234Z,98705.31
2022-11-22T11:23:15.492Z,98705.69
2022-11-22T11:25:45.822Z,98703.94
2022-11-22T11:28:31.051Z,98690.44
2022-11-22T11:31:13.535Z,98690.25
2022-11-22T11:33:42.103Z,98678.94
2022-11-22T11:36:11.688Z,98675.19
2022-11-22T11:38:55.984Z,98677.53
2022-11-22T11:41:38.877Z,98678.31
2022-11-22T11:44:29.303Z,98677.16
2022-11-22T11:46:56.709Z,98679.53
2022-11-22T11:49:36.362Z,98681.16
2022-11-22T11:52:08.408Z,98685.09
2022-11-22T11:54:46.644Z,98676.34
2022-11-22T11:57:36.059Z,98666.06
2022-11-22T12:00:06.127Z,98659.28
2022-11-22T12:02:41.427Z,98650.13
2022-11-22T12:05:32.915Z,98650.16
2022-11-22T12:08:03.467Z,98653.31
2022-11-22T12:10:36.975Z,98660.47
2022-11-22T12:13:27.448Z,98653.31
2022-11-22T12:16:30.448Z,98660.09
2022-11-22T12:19:31.461Z,98662.91
2022-11-22T12:22:29.423Z,98657.34
2022-11-22T12:25:36.606Z,98658.94
2022-11-22T12:28:21.855Z,98651.00
2022-11-22T12:31:12.041Z,98655.38
2022-11-22T12:33:47.350Z,98659.31
2022-11-22T12:36:36.891Z,98649.44
2022-11-22T12:39:06.815Z,98652.63
2022-11-22T12:41:36.095Z,98647.66
2022-11-22T12:44:07.103Z,98660.13
2022-11-22T12:46:46.616Z,98651.44
2022-11-22T12:49:35.324Z,98655.41
2022-11-22T12:52:23.753Z,98652.19
2022-11-22T12:55:27.885Z,98651.84
2022-11-22T12:57:54.833Z,98657.00
2022-11-22T13:00:24.754Z,98658.00
2022-11-22T13:03:07.917Z,98662.16
2022-11-22T13:05:50.226Z,98656.19
2022-11-22T13:08:37.693Z,98652.03
2022-11-22T13:11:37.637Z,98653.22
2022-11-22T13:14:21.174Z,98645.88
2022-11-22T13:16:51.280Z,98650.22
2022-11-22T13:19:21.647Z,98650.81
2022-11-22T13:22:26.344Z,98655.59
2022-11-22T13:25:08.330Z,98646.88
2022-11-22T13:28:03.021Z,98643.13
2022-11-22T13:30:33.295Z,98651.44
2022-11-22T13:33:01.466Z,98644.31
2022-11-22T13:35:34.277Z,98639.94
2022-11-22T13:38:05.326Z,98650.63
2022-11-22T13:40:43.374Z,98638.38
2022-11-22T13:43:21.995Z,98647.88
2022-11-22T13:46:04.543Z,98649.06
2022-11-22T13:48:40.558Z,98649.25
2022-11-22T13:51:17.179Z,98651.78
2022-11-22T13:53:45.619Z,98654.19
2022-11-22T13:56:15.609Z,98645.44
2022-11-22T13:58:51.422Z,98652.59
2022-11-22T14:01:37.286Z,98650.03
2022-11-22T14:04:16.697Z,98658.13
2022-11-22T14:07:06.304Z,98654.94
2022-11-22T14:09:35.822Z,98664.84
2022-11-22T14:12:24.248Z,98677.50
2022-11-22T14:15:30.331Z,98679.44
2022-11-22T14:18:18.609Z,98669.56
2022-11-22T14:21:07.093Z,98674.28
2022-11-22T14:24:12.923Z,98671.72
2022-11-22T14:26:53.763Z,98671.50
2022-11-22T14:30:08.284Z,98656.06
2022-11-22T14:32:42.658Z,98659.66
2022-11-22T14:35:24.920Z,98657.66
2022-11-22T14:38:02.795Z,98667.16
2022-11-22T14:40:39.777Z,98667.78
2022-11-22T14:43:34.586Z,98669.16
2022-11-22T14:46:50.985Z,98668.00
2022-11-22T14:49:42.712Z,98675.72
2022-11-22T14:52:29.911Z,98682.44
2022-11-22T14:55:02.890Z,98678.66
2022-11-22T14:57:32.122Z,98681.78
2022-11-22T15:00:15.941Z,98679.81
2022-11-22T15:03:01.527Z,98681.78
2022-11-22T15:09:13.165Z,98680.19
2022-11-22T15:09:19.916Z,98672.88
2022-11-22T15:11:41.179Z,98686.28
2022-11-22T15:14:26.611Z,98689.47
2022-11-22T15:59:43.059Z,98703.81
2022-11-22T16:02:25.498Z,98700.03
2022-11-22T16:06:10.196Z,98690.94
2022-11-22T16:07:50.595Z,98704.16
2022-11-22T16:10:33.331Z,98690.75
2022-11-22T16:13:13.294Z,98701.59
2022-11-22T16:15:40.312Z,98695.28
2022-11-22T16:18:14.871Z,98694.09
2022-11-22T16:20:43.310Z,98696.97
2022-11-22T16:23:09.984Z,98708.59
2022-11-22T16:25:45.457Z,98702.44
2022-11-22T16:28:29.243Z,98702.53
2022-11-22T16:31:01.096Z,98717.59
2022-11-22T16:33:28.156Z,98707.47
2022-11-22T16:35:56.912Z,98706.47
2022-11-22T16:38:24.762Z,98712.00
2022-11-22T16:40:53.100Z,98708.47
2022-11-22T16:43:24.834Z,98707.28
2022-11-22T16:45:52.002Z,98707.66
2022-11-22T16:48:31.901Z,98713.22
2022-11-22T16:51:03.795Z,98711.16
2022-11-22T16:53:45.977Z,98709.38
2022-11-22T16:56:22.751Z,98727.13
2022-11-22T16:58:51.108Z,98720.59
2022-11-22T17:01:25.491Z,98726.47
2022-11-22T17:03:55.528Z,98723.72
2022-11-22T17:06:25.156Z,98726.22
2022-11-22T17:08:54.648Z,98719.31
2022-11-22T17:11:27.341Z,98724.06
2022-11-22T17:13:54.529Z,98729.06
2022-11-22T17:16:21.339Z,98732.44
2022-11-22T17:18:48.454Z,98732.44
2022-11-22T17:21:32.958Z,98735.91
2022-11-22T17:24:06.563Z,98734.03
2022-11-22T17:26:34.854Z,98733.63
2022-11-22T17:29:02.069Z,98732.91
2022-11-22T17:31:29.729Z,98730.88
2022-11-22T17:33:58.709Z,98744.31
2022-11-22T17:36:35.977Z,98737.97
2022-11-22T17:39:08.604Z,98737.81
2022-11-22T17:41:35.674Z,98734.69
2022-11-22T17:44:04.147Z,98736.28
2022-11-22T17:46:32.250Z,98733.66
2022-11-22T17:49:01.195Z,98735.84
2022-11-22T17:51:29.344Z,98734.84
2022-11-22T17:53:58.382Z,98730.72
2022-11-22T17:56:27.250Z,98734.50
2022-11-22T17:58:54.337Z,98728.63
2022-11-22T18:01:22.899Z,98728.47
2022-11-22T18:03:50.153Z,98723.09
2022-11-22T18:06:18.389Z,98730.28
2022-11-22T18:08:47.256Z,98728.22
2022-11-22T18:11:14.792Z,98731.03
2022-11-22T18:13:42.005Z,98722.38
2022-11-22T18:16:13.979Z,98730.06
2022-11-22T18:18:56.867Z,98735.00
2022-11-22T18:21:25.735Z,98722.38
2022-11-22T18:23:53.360Z,98728.34
2022-11-22T18:31:57.106Z,98731.63
2022-11-22T18:34:25.260Z,98729.19
2022-11-22T18:36:57.699Z,98732.81
2022-11-22T18:39:30.747Z,98731.63
2022-11-22T18:41:59.930Z,98729.19
2022-11-22T18:44:27.310Z,98731.03
2022-11-22T18:46:54.136Z,98735.22
2022-11-22T18:49:21.081Z,98734.88
2022-11-22T18:51:48.018Z,98728.94
2022-11-22T18:54:14.979Z,98721.22
2022-11-22T18:56:42.414Z,98729.31
2022-11-22T18:59:17.790Z,98729.53
2022-11-22T19:01:44.833Z,98723.44
2022-11-22T19:04:25.197Z,98725.03
2022-11-22T19:07:00.901Z,98722.44
2022-11-22T19:09:32.870Z,98727.03
2022-11-22T19:12:00.233Z,98728.97
2022-11-22T19:14:33.848Z,98713.94
2022-11-22T19:17:00.860Z,98714.13
2022-11-22T19:19:32.460Z,98721.88
2022-11-22T19:22:18.360Z,98719.31
2022-11-22T19:24:49.877Z,98723.81
2022-11-22T19:27:18.182Z,98714.75
2022-11-22T19:29:48.154Z,98712.19
2022-11-22T19:32:15.247Z,98708.03
2022-11-22T19:34:42.732Z,98707.66
2022-11-22T19:37:13.433Z,98709.03
2022-11-22T19:39:41.381Z,98707.66
2022-11-22T19:42:08.411Z,98706.28
2022-11-22T19:44:38.167Z,98708.06
2022-11-22T19:47:05.463Z,98704.09
2022-11-22T19:49:32.470Z,98695.78
2022-11-22T19:51:59.367Z,98696.59
2022-11-22T19:54:26.352Z,98702.53
2022-11-22T19:56:53.437Z,98697.38
2022-11-22T19:59:20.560Z,98702.94
2022-11-22T20:01:47.500Z,98704.72
2022-11-22T20:04:15.509Z,98701.75
2022-11-22T20:06:45.937Z,98698.38
2022-11-22T20:09:16.149Z,98696.97
2022-11-22T20:11:44.469Z,98696.97
2022-11-22T20:14:11.366Z,98698.00
2022-11-22T20:16:42.906Z,98687.09
2022-11-22T20:19:11.423Z,98691.81
2022-11-22T20:21:38.780Z,98688.47
2022-11-22T20:24:06.383Z,98677.53
2022-11-22T20:26:34.441Z,98683.91
2022-11-22T20:29:06.968Z,98683.50
2022-11-22T20:31:35.690Z,98673.19
2022-11-22T20:34:03.511Z,98667.06
2022-11-22T20:36:33.282Z,98666.88
2022-11-22T20:39:04.150Z,98665.88
2022-11-22T20:41:36.179Z,98656.53
2022-11-22T20:44:03.090Z,98655.75
2022-11-22T20:46:29.920Z,98662.28
2022-11-22T20:48:58.182Z,98655.13
2022-11-22T20:51:28.172Z,98661.88
2022-11-22T20:53:56.904Z,98658.50
2022-11-22T20:56:24.547Z,98659.28
2022-11-22T20:58:52.524Z,98663.03
2022-11-22T21:01:22.353Z,98642.63
2022-11-22T21:03:49.521Z,98661.25
2022-11-22T21:06:18.011Z,98656.09
2022-11-22T21:08:46.006Z,98655.47
2022-11-22T21:11:18.947Z,98656.47
2022-11-22T21:13:47.495Z,98655.31
2022-11-22T21:16:26.202Z,98655.47
2022-11-22T21:18:58.252Z,98661.59
2022-11-22T21:21:26.184Z,98667.34
2022-11-22T21:23:55.423Z,98665.34
2022-11-22T21:26:23.291Z,98666.56
2022-11-22T21:28:50.384Z,98663.72
2022-11-22T21:31:17.236Z,98667.50
2022-11-22T21:33:45.741Z,98670.72
2022-11-22T21:36:13.229Z,98676.66
2022-11-22T21:38:40.161Z,98676.88
2022-11-22T21:41:41.475Z,98679.50
2022-11-22T21:43:59.278Z,98680.09
2022-11-22T21:46:28.704Z,98685.06
2022-11-22T21:48:56.166Z,98676.97
2022-11-22T21:51:28.477Z,98674.78
2022-11-22T21:53:59.247Z,98675.59
2022-11-22T21:56:27.993Z,98675.19
2022-11-22T21:58:54.802Z,98678.19
2022-11-22T22:01:21.905Z,98679.16
2022-11-22T22:03:49.082Z,98684.31
2022-11-22T22:06:16.043Z,98694.00
2022-11-22T22:08:42.916Z,98696.00
2022-11-22T22:11:09.759Z,98692.63
2022-11-22T22:13:36.688Z,98702.75
2022-11-22T22:16:06.922Z,98701.34
2022-11-22T22:18:37.769Z,98703.31
2022-11-22T22:21:09.561Z,98707.28
2022-11-22T22:23:38.819Z,98708.06
2022-11-22T22:26:08.018Z,98709.28
2022-11-22T22:28:37.183Z,98707.66
2022-11-22T22:31:12.350Z,98710.84
2022-11-22T22:33:41.418Z,98705.28
2022-11-22T22:36:10.019Z,98704.50
2022-11-22T22:38:36.866Z,98711.63
2022-11-22T22:41:05.429Z,98712.00
2022-11-22T22:43:34.504Z,98705.66
2022-11-22T22:46:06.869Z,98710.81
2022-11-22T22:48:34.393Z,98711.00
2022-11-22T22:51:22.909Z,98706.63
2022-11-22T22:53:52.316Z,98710.16
2022-11-22T22:56:21.073Z,98709.59
2022-11-22T22:58:48.583Z,98703.81
2022-11-22T23:01:19.051Z,98712.31
2022-11-22T23:03:50.224Z,98702.97
2022-11-22T23:06:17.822Z,98698.81
2022-11-22T23:08:46.891Z,98696.81
2022-11-22T23:11:14.230Z,98703.31
2022-11-22T23:13:43.218Z,98703.88
2022-11-22T23:16:12.963Z,98698.69
2022-11-22T23:18:41.913Z,98703.03
2022-11-22T23:21:15.482Z,98702.03
2022-11-22T23:23:42.344Z,98704.41
2022-11-22T23:26:13.122Z,98702.84
2022-11-22T23:28:40.075Z,98701.25
2022-11-22T23:31:15.086Z,98699.66
2022-11-22T23:33:43.132Z,98695.97
2022-11-22T23:36:16.432Z,98694.19
2022-11-22T23:38:46.424Z,98695.97
2022-11-22T23:41:20.138Z,98686.03
2022-11-22T23:43:51.695Z,98703.50
2022-11-22T23:46:18.437Z,98702.69
2022-11-22T23:48:46.780Z,98702.69
2022-11-22T23:51:14.875Z,98705.28
2022-11-22T23:53:42.134Z,98699.53
2022-11-22T23:56:11.500Z,98701.84
2022-11-22T23:58:38.946Z,98699.88
